Time;durP1;ratioP1;P1;durP2;ratioP2;P2;SDS_P1;SDS_P2;PMS_P1;PMS_P2;Temp;Humidity;BMP_temperature;BMP_pressure;BME280_temperature;BME280_humidity;BME280_pressure;Samples;Min_cycle;Max_cycle;Signal;HPM_P1;HPM_P2
2022/03/11 00:01:03;;;;;;;4.58;2.00;;;;;;;-4.65;36.89;101983.50;1637197;86;21005;-65
2022/03/11 00:03:31;;;;;;;5.40;2.20;;;;;;;-4.67;36.97;101975.44;1636044;87;21505;-66
2022/03/11 00:05:58;;;;;;;4.83;2.33;;;;;;;-4.68;36.92;101977.22;1640293;86;21259;-66
2022/03/11 00:08:26;;;;;;;5.45;2.10;;;;;;;-4.69;37.05;101962.55;1639475;86;21638;-67
2022/03/11 00:10:54;;;;;;;4.80;2.37;;;;;;;-4.74;37.03;101969.89;1647718;84;21036;-66
2022/03/11 00:13:23;;;;;;;8.90;2.75;;;;;;;-4.76;36.94;101967.90;1647082;84;21174;-66
2022/03/11 00:15:52;;;;;;;6.95;2.33;;;;;;;-4.75;37.17;101965.64;1648726;84;21027;-66
2022/03/11 00:18:20;;;;;;;5.47;2.20;;;;;;;-4.77;37.14;101965.77;1650235;84;21312;-67
2022/03/11 00:20:49;;;;;;;4.22;2.10;;;;;;;-4.77;37.08;101957.09;1645141;84;21081;-67
2022/03/11 00:23:17;;;;;;;5.15;2.52;;;;;;;-4.79;36.98;101944.68;1655793;84;21510;-66
2022/03/11 00:25:44;;;;;;;5.58;2.20;;;;;;;-4.81;37.13;101955.21;1651069;84;21044;-67
2022/03/11 00:28:13;;;;;;;6.22;2.60;;;;;;;-4.82;37.33;101952.74;1646997;84;20975;-67
2022/03/11 00:30:40;;;;;;;5.50;2.30;;;;;;;-4.83;37.49;101953.70;1649312;84;21063;-67
2022/03/11 00:33:07;;;;;;;4.60;2.00;;;;;;;-4.85;37.40;101951.69;1647261;85;21023;-67
2022/03/11 00:35:36;;;;;;;3.92;1.77;;;;;;;-4.88;37.51;101952.75;1647879;84;21146;-66
2022/03/11 00:38:04;;;;;;;4.85;2.22;;;;;;;-4.90;37.34;101952.50;1645884;84;21601;-67
2022/03/11 00:40:31;;;;;;;3.75;1.90;;;;;;;-4.91;37.47;101949.08;1635946;87;21638;-66
2022/03/11 00:43:00;;;;;;;5.17;1.80;;;;;;;-4.90;37.61;101948.59;1639251;86;21419;-66
2022/03/11 00:45:28;;;;;;;5.05;2.12;;;;;;;-4.92;37.63;101949.21;1645907;85;21080;-66
2022/03/11 00:47:55;;;;;;;3.95;1.98;;;;;;;-4.95;37.59;101939.86;1646803;84;21637;-66
2022/03/11 00:50:23;;;;;;;4.15;2.00;;;;;;;-4.99;37.58;101944.48;1646266;86;21600;-64
2022/03/11 00:52:50;;;;;;;6.10;2.65;;;;;;;-4.98;37.70;101935.70;1648615;84;21164;-66
2022/03/11 00:55:17;;;;;;;4.60;2.00;;;;;;;-5.00;37.60;101928.51;1648418;85;21213;-67
2022/03/11 00:57:46;;;;;;;4.17;1.80;;;;;;;-4.97;37.75;101933.92;1647206;84;21166;-67
2022/03/11 01:00:15;;;;;;;4.70;1.70;;;;;;;-4.99;37.65;101933.23;1649997;86;21137;-65
2022/03/11 01:02:47;;;;;;;5.05;2.33;;;;;;;-5.02;37.62;101934.78;1650363;84;21138;-66
2022/03/11 01:05:14;;;;;;;4.25;2.10;;;;;;;-5.03;37.75;101941.77;1639331;86;21049;-66
2022/03/11 01:07:42;;;;;;;4.22;1.75;;;;;;;-5.02;37.94;101935.60;1635438;87;21250;-66
2022/03/11 01:10:10;;;;;;;4.55;1.98;;;;;;;-5.05;37.88;101927.20;1642792;84;21094;-66
2022/03/11 01:12:37;;;;;;;5.22;1.77;;;;;;;-5.08;37.93;101932.17;1648493;84;21502;-67
2022/03/11 01:15:07;;;;;;;4.17;2.00;;;;;;;-5.10;38.15;101935.39;1647772;84;21050;-66
2022/03/11 01:17:34;;;;;;;7.00;2.17;;;;;;;-5.11;38.00;101936.80;1647354;84;20971;-67
2022/03/11 01:20:03;;;;;;;4.10;1.80;;;;;;;-5.15;37.83;101924.50;1648770;84;21228;-66
2022/03/11 01:22:32;;;;;;;4.08;1.67;;;;;;;-5.14;38.04;101928.75;1651666;85;21116;-66
2022/03/11 01:25:00;;;;;;;4.28;1.60;;;;;;;-5.26;38.18;101931.03;1647860;84;21063;-68
2022/03/11 01:27:28;;;;;;;4.28;1.95;;;;;;;-5.31;38.30;101940.48;1646727;84;21094;-67
2022/03/11 01:29:56;;;;;;;4.75;2.15;;;;;;;-5.31;38.47;101927.94;1648378;84;21177;-65
2022/03/11 01:32:23;;;;;;;4.83;2.10;;;;;;;-5.33;38.49;101928.53;1651461;84;21295;-66
2022/03/11 01:34:51;;;;;;;4.00;1.70;;;;;;;-5.35;38.47;101928.66;1649003;84;21603;-65
2022/03/11 01:37:18;;;;;;;3.70;1.72;;;;;;;-5.37;38.66;101931.84;1648542;84;21074;-66
2022/03/11 01:39:46;;;;;;;5.15;2.30;;;;;;;-5.37;38.75;101931.84;1650732;84;21118;-64
2022/03/11 01:42:14;;;;;;;3.95;1.80;;;;;;;-5.38;38.85;101931.50;1649078;84;21526;-66
2022/03/11 01:44:41;;;;;;;4.05;1.75;;;;;;;-5.41;38.84;101927.83;1658243;85;21876;-65
2022/03/11 01:47:08;;;;;;;7.03;2.55;;;;;;;-5.41;38.96;101934.34;1653900;86;21036;-66
2022/03/11 01:49:35;;;;;;;6.58;2.27;;;;;;;-5.43;39.01;101924.50;1646624;84;21125;-66
2022/03/11 01:52:05;;;;;;;4.55;1.98;;;;;;;-5.44;39.18;101928.06;1650113;85;21059;-65
2022/03/11 01:54:32;;;;;;;4.87;2.12;;;;;;;-5.46;39.19;101930.80;1649528;84;21102;-65
2022/03/11 01:56:59;;;;;;;4.78;1.95;;;;;;;-5.47;39.33;101928.30;1646905;84;22036;-65
2022/03/11 01:59:27;;;;;;;4.03;1.82;;;;;;;-5.49;39.25;101921.92;1647060;86;21043;-65
2022/03/11 02:01:54;;;;;;;5.45;2.00;;;;;;;-5.50;39.24;101929.36;1641029;86;21213;-65
2022/03/11 02:04:21;;;;;;;4.60;1.90;;;;;;;-5.50;39.34;101929.83;1639448;86;21143;-66
2022/03/11 02:06:49;;;;;;;5.33;2.15;;;;;;;-5.52;39.32;101928.66;1638619;86;21050;-66
2022/03/11 02:09:16;;;;;;;4.00;2.08;;;;;;;-5.52;39.30;101928.66;1666674;85;21129;-65
2022/03/11 02:11:46;;;;;;;4.83;1.95;;;;;;;-5.55;39.25;101932.80;1637609;86;21093;-66
2022/03/11 02:14:14;;;;;;;4.58;1.92;;;;;;;-5.57;39.31;101929.95;1607977;87;21057;-66
2022/03/11 02:16:43;;;;;;;3.90;1.70;;;;;;;-5.57;39.36;101937.77;1635526;87;21084;-66
2022/03/11 02:19:11;;;;;;;4.87;1.95;;;;;;;-5.58;39.41;101930.91;1649368;85;21109;-66
2022/03/11 02:21:45;;;;;;;6.00;2.10;;;;;;;-5.60;39.57;101923.68;1668148;85;21229;-65
2022/03/11 02:24:16;;;;;;;4.53;1.50;;;;;;;-5.62;39.41;101936.00;1667720;85;21509;-66
2022/03/11 02:26:44;;;;;;;5.12;2.08;;;;;;;-5.63;39.48;101929.95;1668365;85;21459;-66
2022/03/11 02:29:11;;;;;;;3.35;1.72;;;;;;;-5.63;39.42;101933.02;1668056;85;21039;-66
2022/03/11 02:31:40;;;;;;;3.72;1.80;;;;;;;-5.66;39.40;101937.98;1668184;85;21027;-66
2022/03/11 02:34:08;;;;;;;4.15;1.87;;;;;;;-5.67;39.41;101932.44;1668074;85;21228;-67
2022/03/11 02:36:35;;;;;;;4.22;1.52;;;;;;;-5.70;39.36;101937.39;1668022;85;21167;-67
2022/03/11 02:39:03;;;;;;;4.53;1.90;;;;;;;-5.69;39.49;101939.55;1667996;86;20968;-67
2022/03/11 02:41:30;;;;;;;5.35;2.08;;;;;;;-5.71;39.51;101934.92;1668229;85;21122;-66
2022/03/11 02:43:59;;;;;;;4.72;2.27;;;;;;;-5.74;39.63;101935.16;1668087;85;21020;-65
2022/03/11 02:46:26;;;;;;;4.87;2.17;;;;;;;-5.74;39.77;101946.86;1668023;85;21807;-65
2022/03/11 02:48:53;;;;;;;3.77;1.50;;;;;;;-5.78;39.64;101941.06;1656368;86;21560;-66
2022/03/11 02:51:20;;;;;;;4.40;1.92;;;;;;;-5.78;39.80;101938.94;1640883;86;21014;-66
2022/03/11 02:53:48;;;;;;;3.45;1.60;;;;;;;-5.81;39.75;101933.97;1640555;86;21554;-67
2022/03/11 02:56:16;;;;;;;4.67;1.90;;;;;;;-5.84;39.78;101942.83;1640959;87;21070;-66
2022/03/11 02:58:43;;;;;;;3.50;1.75;;;;;;;-5.86;39.82;101940.80;1640900;86;21200;-66
2022/03/11 03:01:10;;;;;;;3.60;1.60;;;;;;;-5.86;39.92;101937.38;1640798;87;20984;-66
2022/03/11 03:03:38;;;;;;;5.85;1.85;;;;;;;-5.86;39.99;101945.18;1640797;87;21070;-66
2022/03/11 03:06:07;;;;;;;4.22;1.77;;;;;;;-5.89;40.00;101946.23;1640743;86;21160;-66
2022/03/11 03:08:35;;;;;;;3.62;1.62;;;;;;;-5.91;40.01;101950.27;1641026;86;21632;-65
2022/03/11 03:11:03;;;;;;;7.08;1.92;;;;;;;-5.92;40.05;101949.92;1640551;87;21230;-65
2022/03/11 03:13:30;;;;;;;4.12;2.00;;;;;;;-5.93;40.14;101942.24;1640682;86;21063;-67
2022/03/11 03:15:59;;;;;;;4.47;2.00;;;;;;;-5.94;40.13;101941.89;1640641;86;21095;-65
2022/03/11 03:18:27;;;;;;;3.10;1.70;;;;;;;-5.98;40.15;101940.00;1640883;86;21027;-67
2022/03/11 03:20:54;;;;;;;4.37;1.95;;;;;;;-5.99;40.28;101934.45;1640873;86;21066;-66
2022/03/11 03:23:25;;;;;;;4.83;1.65;;;;;;;-5.97;40.28;101938.22;1640818;86;20987;-66
2022/03/11 03:25:54;;;;;;;4.53;1.67;;;;;;;-6.00;40.30;101944.95;1640659;86;21008;-66
2022/03/11 03:28:21;;;;;;;4.53;1.77;;;;;;;-6.02;40.16;101942.92;1640709;86;21032;-66
2022/03/11 03:30:48;;;;;;;4.05;1.92;;;;;;;-6.05;40.36;101933.60;1640830;86;21043;-66
2022/03/11 03:33:19;;;;;;;5.50;2.60;;;;;;;-6.04;40.26;101940.93;1644679;85;21058;-66
2022/03/11 03:35:46;;;;;;;3.62;1.77;;;;;;;-6.05;40.16;101941.88;1667569;85;21132;-65
2022/03/11 03:38:13;;;;;;;4.42;1.72;;;;;;;-6.04;40.27;101934.42;1667989;85;20996;-66
2022/03/11 03:40:40;;;;;;;4.12;1.62;;;;;;;-6.07;40.26;101928.97;1668254;85;21447;-65
2022/03/11 03:43:09;;;;;;;4.72;2.00;;;;;;;-6.07;40.32;101928.16;1661659;85;21173;-66
2022/03/11 03:45:36;;;;;;;5.03;1.82;;;;;;;-6.09;40.47;101928.72;1667625;85;21083;-65
2022/03/11 03:48:05;;;;;;;5.03;1.85;;;;;;;-6.11;40.64;101926.25;1668158;85;21161;-65
2022/03/11 03:50:35;;;;;;;4.97;1.67;;;;;;;-6.12;40.65;101928.47;1668567;85;20991;-65
2022/03/11 03:53:02;;;;;;;3.70;1.57;;;;;;;-6.14;40.79;101932.98;1670096;85;20996;-67
2022/03/11 03:55:31;;;;;;;3.27;1.60;;;;;;;-6.17;40.66;101931.43;1668507;85;20976;-66
2022/03/11 03:57:59;;;;;;;4.55;1.98;;;;;;;-6.17;40.80;101924.11;1668391;85;21140;-67
2022/03/11 04:00:27;;;;;;;3.52;1.60;;;;;;;-6.19;40.98;101930.70;1666802;86;21293;-67
2022/03/11 04:02:54;;;;;;;3.95;1.70;;;;;;;-6.20;40.95;101926.45;1667705;85;21068;-65
2022/03/11 04:05:21;;;;;;;3.90;1.55;;;;;;;-6.21;40.96;101932.61;1665129;85;21768;-65
2022/03/11 04:07:50;;;;;;;4.17;1.77;;;;;;;-6.22;41.00;101939.20;1661735;85;20991;-65
2022/03/11 04:10:20;;;;;;;4.75;2.33;;;;;;;-6.23;41.10;101932.36;1650488;84;21247;-65
2022/03/11 04:12:49;;;;;;;5.53;2.45;;;;;;;-6.26;41.12;101939.91;1644508;84;21163;-65
2022/03/11 04:15:16;;;;;;;5.75;2.35;;;;;;;-6.26;41.04;101941.68;1639307;86;21601;-66
2022/03/11 04:17:45;;;;;;;4.40;2.08;;;;;;;-6.28;41.06;101942.28;1638895;86;21241;-66
2022/03/11 04:20:12;;;;;;;6.10;2.35;;;;;;;-6.27;41.22;101938.73;1639009;86;21603;-65
2022/03/11 04:22:43;;;;;;;5.22;2.10;;;;;;;-6.30;41.43;101938.95;1640592;86;21564;-66
2022/03/11 04:25:11;;;;;;;5.45;1.92;;;;;;;-6.30;41.44;101941.55;1647274;84;21252;-64
2022/03/11 04:27:40;;;;;;;5.17;2.00;;;;;;;-6.30;41.47;101942.86;1648548;84;21444;-66
2022/03/11 04:30:11;;;;;;;5.40;2.40;;;;;;;-6.32;41.77;101953.35;1646795;84;21082;-65
2022/03/11 04:32:39;;;;;;;6.05;2.50;;;;;;;-6.31;41.67;101956.81;1650096;84;21506;-65
2022/03/11 04:35:07;;;;;;;4.97;2.10;;;;;;;-6.31;41.67;101965.44;1650712;84;21712;-65
2022/03/11 04:37:35;;;;;;;5.15;2.25;;;;;;;-6.30;41.63;101967.08;1647235;84;21074;-64
2022/03/11 04:40:05;;;;;;;2.87;1.52;;;;;;;-6.32;41.72;101961.16;1647497;84;21093;-67
2022/03/11 04:42:32;;;;;;;5.17;2.10;;;;;;;-6.32;41.68;101964.23;1648705;84;21087;-65
2022/03/11 04:44:59;;;;;;;4.50;1.98;;;;;;;-6.32;41.88;101973.33;1649826;84;21019;-66
2022/03/11 04:47:27;;;;;;;7.72;1.98;;;;;;;-6.33;41.83;101984.68;1647220;84;21050;-66
2022/03/11 04:49:54;;;;;;;4.40;2.12;;;;;;;-6.35;41.72;101970.47;1650354;84;21265;-64
2022/03/11 04:52:22;;;;;;;5.47;2.50;;;;;;;-6.31;41.88;101977.61;1647480;84;21043;-66
2022/03/11 04:54:49;;;;;;;3.95;1.95;;;;;;;-6.31;42.08;101975.83;1652197;85;21494;-66
2022/03/11 04:57:16;;;;;;;5.40;2.50;;;;;;;-6.32;42.10;101970.73;1647483;84;21105;-66
2022/03/11 04:59:47;;;;;;;5.72;2.45;;;;;;;-6.32;42.17;101975.45;1642127;86;21607;-65
2022/03/11 05:02:27;;;;;;;5.20;1.87;;;;;;;-6.33;42.18;101979.00;1635218;87;21156;-66
2022/03/11 05:04:55;;;;;;;4.00;1.80;;;;;;;-6.31;42.15;101984.94;1634573;84;21600;-64
2022/03/11 05:07:22;;;;;;;6.75;2.62;;;;;;;-6.30;42.23;101992.26;1647938;84;21132;-66
2022/03/11 05:09:49;;;;;;;5.60;2.12;;;;;;;-6.24;42.36;101988.74;1647174;84;21399;-66
2022/03/11 05:12:18;;;;;;;3.72;1.98;;;;;;;-6.20;42.26;101982.84;1648781;84;21018;-66
2022/03/11 05:14:45;;;;;;;5.80;2.62;;;;;;;-6.16;42.20;101984.27;1646590;84;21153;-67
2022/03/11 05:17:13;;;;;;;4.80;1.92;;;;;;;-6.12;42.23;101983.09;1647665;84;21035;-67
2022/03/11 05:19:42;;;;;;;9.33;3.10;;;;;;;-6.08;42.11;101994.95;1649790;84;21649;-67
2022/03/11 05:22:11;;;;;;;5.45;2.45;;;;;;;-6.03;41.99;101998.50;1651153;84;21085;-66
2022/03/11 05:24:39;;;;;;;7.03;2.62;;;;;;;-5.97;42.04;101995.45;1647635;84;21191;-66
2022/03/11 05:27:07;;;;;;;5.22;2.37;;;;;;;-5.95;41.98;101994.41;1651437;84;21374;-68
2022/03/11 05:29:37;;;;;;;4.87;1.77;;;;;;;-5.93;41.83;102002.91;1643032;86;21079;-67
2022/03/11 05:32:08;;;;;;;6.35;2.40;;;;;;;-5.90;41.82;101988.81;1642341;86;21039;-67
2022/03/11 05:34:39;;;;;;;3.60;1.72;;;;;;;-5.86;41.65;101998.05;1646996;84;21043;-66
2022/03/11 05:37:07;;;;;;;6.15;2.30;;;;;;;-5.84;41.53;101997.95;1651510;84;21070;-66
2022/03/11 05:39:34;;;;;;;4.72;2.27;;;;;;;-5.78;41.69;101985.78;1646519;86;21810;-66
2022/03/11 05:42:01;;;;;;;5.53;2.37;;;;;;;-5.74;41.62;101991.93;1650517;84;21121;-68
2022/03/11 05:44:30;;;;;;;5.33;2.40;;;;;;;-5.66;41.73;101989.59;1648580;84;21181;-66
2022/03/11 05:46:59;;;;;;;3.80;2.00;;;;;;;-5.59;41.79;101996.91;1651070;84;21043;-67
2022/03/11 05:49:28;;;;;;;4.67;2.12;;;;;;;-5.54;41.21;102000.84;1649130;84;21078;-68
2022/03/11 05:51:56;;;;;;;5.20;2.62;;;;;;;-5.49;41.01;101988.31;1647561;84;21744;-67
2022/03/11 05:54:29;;;;;;;4.75;2.17;;;;;;;-5.45;40.99;101999.32;1648710;85;20895;-67
2022/03/11 05:57:00;;;;;;;4.65;2.10;;;;;;;-5.42;40.86;101997.78;1640470;84;21105;-65
2022/03/11 05:59:29;;;;;;;7.97;2.55;;;;;;;-5.36;40.93;101996.02;1645298;84;21558;-66
2022/03/11 06:01:56;;;;;;;5.40;2.35;;;;;;;-5.27;40.95;101993.16;1646785;86;21209;-66
2022/03/11 06:04:23;;;;;;;5.58;2.17;;;;;;;-5.21;40.74;101998.73;1647024;84;21149;-67
2022/03/11 06:06:51;;;;;;;4.95;2.35;;;;;;;-5.17;40.69;101991.98;1647863;84;21079;-67
2022/03/11 06:09:19;;;;;;;6.17;2.40;;;;;;;-5.13;40.54;101989.48;1647641;84;21059;-67
2022/03/11 06:11:47;;;;;;;5.70;2.47;;;;;;;-5.08;40.72;102005.60;1649692;86;21080;-68
2022/03/11 06:14:15;;;;;;;4.55;2.02;;;;;;;-5.01;40.57;101985.45;1648520;84;21075;-68
2022/03/11 06:16:43;;;;;;;5.83;2.45;;;;;;;-4.95;40.13;102000.61;1650016;84;21146;-67
2022/03/11 06:19:10;;;;;;;7.50;2.15;;;;;;;-4.92;40.34;101991.73;1647989;84;21023;-68
2022/03/11 06:21:38;;;;;;;4.28;1.70;;;;;;;-4.88;40.07;101997.53;1654574;85;21154;-68
2022/03/11 06:24:05;;;;;;;3.98;1.75;;;;;;;-4.88;39.42;101990.53;1666444;85;21074;-68
2022/03/11 06:26:33;;;;;;;4.67;2.12;;;;;;;-4.87;39.21;101992.66;1653955;84;21661;-66
2022/03/11 06:29:00;;;;;;;4.17;2.02;;;;;;;-4.83;39.66;101981.89;1639917;86;21461;-67
2022/03/11 06:31:27;;;;;;;5.35;2.33;;;;;;;-4.75;39.78;101986.48;1635532;87;21552;-68
2022/03/11 06:33:57;;;;;;;5.35;2.10;;;;;;;-4.73;39.35;101982.81;1642478;84;21170;-67
2022/03/11 06:36:24;;;;;;;5.92;2.25;;;;;;;-4.78;39.07;101990.64;1642023;85;21050;-67
2022/03/11 06:38:51;;;;;;;7.50;2.47;;;;;;;-4.81;39.56;101979.97;1635838;87;21191;-68
2022/03/11 06:41:18;;;;;;;4.30;2.25;;;;;;;-4.78;39.63;101989.33;1639090;86;21839;-69
2022/03/11 06:43:45;;;;;;;6.42;2.35;;;;;;;-4.73;39.12;101987.20;1649240;85;21667;-67
2022/03/11 06:46:23;;;;;;;4.22;2.12;;;;;;;-4.69;39.40;101976.88;1650279;84;21023;-68
2022/03/11 06:48:50;;;;;;;4.65;2.22;;;;;;;-4.62;39.18;101974.61;1648056;84;21094;-68
2022/03/11 06:51:18;;;;;;;6.75;2.37;;;;;;;-4.55;38.54;101977.90;1650287;84;21067;-69
2022/03/11 06:53:49;;;;;;;;;;;;;;;-4.43;38.60;101980.48;1646153;84;21050;-67
2022/03/11 06:56:16;;;;;;;4.22;1.75;;;;;;;-4.33;37.80;101973.58;1643466;85;20313;-68
2022/03/11 06:58:43;;;;;;;5.03;2.30;;;;;;;-4.37;37.55;101973.48;1639616;87;21011;-68
2022/03/11 07:01:10;;;;;;;7.92;2.22;;;;;;;-4.42;38.18;101980.83;1642917;85;21035;-68
2022/03/11 07:03:37;;;;;;;7.03;2.33;;;;;;;-4.38;38.09;101977.02;1649982;84;21173;-69
2022/03/11 07:06:04;;;;;;;6.28;2.67;;;;;;;-4.28;37.93;101981.39;1648193;84;21188;-68
2022/03/11 07:08:31;;;;;;;5.50;2.58;;;;;;;-4.15;37.64;101982.97;1648159;84;21062;-68
2022/03/11 07:10:59;;;;;;;5.25;2.10;;;;;;;-4.10;37.59;101975.13;1648419;84;21039;-68
2022/03/11 07:13:27;;;;;;;4.33;1.80;;;;;;;-4.06;37.41;101967.88;1648941;84;21082;-69
2022/03/11 07:15:56;;;;;;;4.87;1.85;;;;;;;-3.97;37.28;101962.37;1648802;84;21149;-67
2022/03/11 07:18:23;;;;;;;4.72;1.90;;;;;;;-3.87;36.38;101981.54;1647246;84;21795;-67
2022/03/11 07:20:50;;;;;;;3.37;1.87;;;;;;;-3.83;35.88;101983.75;1647989;84;21032;-68
2022/03/11 07:23:19;;;;;;;4.78;2.22;;;;;;;-3.74;35.67;101987.88;1649111;85;21145;-68
2022/03/11 07:25:46;;;;;;;5.00;1.82;;;;;;;-3.63;36.00;101969.03;1647647;84;21097;-69
2022/03/11 07:28:14;;;;;;;4.35;1.82;;;;;;;-3.52;35.73;101961.62;1649743;86;21082;-70
2022/03/11 07:30:41;;;;;;;6.62;2.85;;;;;;;-3.44;35.42;101972.71;1648491;84;21126;-70
2022/03/11 07:33:11;;;;;;;5.42;2.15;;;;;;;-3.32;35.68;101986.05;1649982;84;21086;-68
2022/03/11 07:35:40;;;;;;;4.17;2.20;;;;;;;-3.17;35.18;101987.81;1648549;84;21578;-70
2022/03/11 07:38:08;;;;;;;4.85;2.27;;;;;;;-3.12;34.81;101962.94;1647061;84;22358;-67
2022/03/11 07:40:37;;;;;;;5.08;2.05;;;;;;;-3.02;35.12;101973.91;1645775;86;21091;-68
2022/03/11 07:43:06;;;;;;;5.50;2.12;;;;;;;-2.89;34.56;101966.66;1649995;84;21281;-66
2022/03/11 07:45:33;;;;;;;5.12;2.22;;;;;;;-2.71;34.21;101974.66;1648038;84;21011;-68
2022/03/11 07:48:01;;;;;;;5.05;2.02;;;;;;;-2.59;33.55;101957.89;1650626;85;21113;-67
2022/03/11 07:50:29;;;;;;;7.22;2.80;;;;;;;-2.55;32.76;101954.52;1650608;84;21087;-69
2022/03/11 07:52:57;;;;;;;5.95;2.00;;;;;;;-2.56;33.40;101947.65;1650143;85;21096;-68
2022/03/11 07:55:28;;;;;;;5.05;1.80;;;;;;;-2.50;33.36;101951.00;1647918;84;21276;-69
2022/03/11 07:57:55;;;;;;;5.08;2.10;;;;;;;-2.50;32.60;101960.16;1651609;84;21051;-69
2022/03/11 08:00:24;;;;;;;5.90;2.00;;;;;;;-2.56;32.48;101952.88;1665345;84;21531;-70
2022/03/11 08:02:53;;;;;;;5.67;2.30;;;;;;;-2.58;32.52;101950.87;1668383;85;21019;-69
2022/03/11 08:05:20;;;;;;;4.53;1.80;;;;;;;-2.51;32.69;101954.10;1659034;84;21204;-68
2022/03/11 08:07:49;;;;;;;4.65;2.10;;;;;;;-2.43;32.41;101958.19;1649768;85;21202;-68
2022/03/11 08:10:18;;;;;;;6.97;2.05;;;;;;;-2.33;32.54;101952.95;1647520;84;21020;-70
2022/03/11 08:12:45;;;;;;;4.78;2.02;;;;;;;-2.19;31.82;101963.00;1651920;84;21196;-68
2022/03/11 08:15:17;;;;;;;4.15;1.80;;;;;;;-2.15;31.61;101948.66;1651269;84;21058;-67
2022/03/11 08:17:44;;;;;;;3.08;1.52;;;;;;;-2.15;31.80;101960.92;1649336;85;21003;-67
2022/03/11 08:20:11;;;;;;;3.90;1.62;;;;;;;-2.06;31.39;101957.97;1649606;84;21459;-68
2022/03/11 08:22:38;;;;;;;4.72;2.00;;;;;;;-2.05;31.27;101956.98;1647580;84;21174;-68
2022/03/11 08:25:10;;;;;;;4.65;1.65;;;;;;;-1.99;31.58;101951.20;1648040;84;21103;-70
2022/03/11 08:27:41;;;;;;;6.58;1.98;;;;;;;-1.85;30.91;101959.09;1648252;84;21161;-70
2022/03/11 08:30:10;;;;;;;4.58;2.00;;;;;;;-1.84;30.52;101943.26;1648895;84;21553;-69
2022/03/11 08:32:38;;;;;;;3.77;1.67;;;;;;;-1.82;30.76;101946.54;1650600;84;21229;-70
2022/03/11 08:35:08;;;;;;;3.98;1.70;;;;;;;-1.76;30.64;101955.14;1650952;84;21554;-69
2022/03/11 08:37:36;;;;;;;4.72;1.80;;;;;;;-1.75;30.38;101947.63;1652903;85;21077;-69
2022/03/11 08:40:08;;;;;;;3.92;1.75;;;;;;;-1.66;30.68;101938.91;1653966;85;21019;-68
2022/03/11 08:42:39;;;;;;;5.00;1.85;;;;;;;-1.54;30.15;101952.68;1652902;84;21189;-68
2022/03/11 08:45:10;;;;;;;6.92;2.10;;;;;;;-1.48;29.90;101952.57;1643836;86;21250;-70
2022/03/11 08:47:38;;;;;;;4.67;1.62;;;;;;;-1.42;29.69;101947.58;1647632;84;21142;-68
2022/03/11 08:50:06;;;;;;;4.50;1.77;;;;;;;-1.32;29.83;101950.16;1651639;84;21047;-69
2022/03/11 08:52:34;;;;;;;5.95;1.90;;;;;;;-1.28;29.91;101945.00;1646747;84;38679;-68
2022/03/11 08:55:01;;;;;;;4.70;1.72;;;;;;;-1.24;29.44;101953.39;1651456;84;20950;-67
2022/03/11 08:57:29;;;;;;;5.90;2.17;;;;;;;-1.26;29.34;101965.31;1648264;84;21556;-68
2022/03/11 08:59:56;;;;;;;5.90;2.20;;;;;;;-1.24;29.86;101954.22;1647007;84;21070;-68
2022/03/11 09:05:10;;;;;;;4.97;1.42;;;;;;;-1.06;29.54;101963.92;1650604;85;21581;-68
2022/03/11 09:07:38;;;;;;;5.08;1.80;;;;;;;-0.83;29.28;101944.18;1647174;84;21063;-68
2022/03/11 09:10:09;;;;;;;4.30;1.92;;;;;;;-0.83;29.28;101944.18;1650270;85;21322;-69
2022/03/11 09:12:38;;;;;;;10.63;2.02;;;;;;;-0.64;29.25;101947.17;1647738;85;21106;-70
2022/03/11 09:15:06;;;;;;;4.37;1.72;;;;;;;-0.50;28.39;101956.32;1647043;84;21173;-68
2022/03/11 09:17:34;;;;;;;4.20;2.00;;;;;;;-0.50;28.39;101956.32;1651131;84;21543;-68
2022/03/11 09:20:06;;;;;;;4.78;2.08;;;;;;;-0.44;28.45;101950.97;1651078;84;20991;-69
2022/03/11 09:22:34;;;;;;;4.78;2.22;;;;;;;-0.41;29.29;101948.86;1651383;84;21832;-68
2022/03/11 09:25:04;;;;;;;6.70;1.95;;;;;;;-0.31;29.05;101950.92;1652040;84;21019;-68
2022/03/11 09:27:31;;;;;;;6.17;2.08;;;;;;;-0.26;28.87;101959.18;1648055;84;21320;-69
2022/03/11 09:29:58;;;;;;;7.85;2.25;;;;;;;-0.27;29.01;101942.25;1649001;84;21129;-67
2022/03/11 09:32:26;;;;;;;9.10;1.87;;;;;;;-0.29;29.10;101946.35;1652717;84;21097;-70
2022/03/11 09:34:58;;;;;;;5.25;2.08;;;;;;;-0.25;28.69;101954.75;1651333;84;21663;-71
2022/03/11 09:37:25;;;;;;;3.98;1.70;;;;;;;-0.20;28.48;101949.03;1642540;86;21039;-70
2022/03/11 09:39:55;;;;;;;6.45;1.92;;;;;;;-0.21;28.44;101965.77;1646052;84;21118;-70
2022/03/11 09:42:22;;;;;;;5.65;2.35;;;;;;;-0.27;28.29;101944.38;1648179;84;21086;-69
2022/03/11 09:44:52;;;;;;;8.78;2.00;;;;;;;-0.21;28.64;101943.45;1646452;86;21566;-70
2022/03/11 09:47:20;;;;;;;6.58;1.65;;;;;;;-0.07;29.25;101938.95;1651782;84;21809;-69
2022/03/11 09:49:48;;;;;;;2.95;1.50;;;;;;;-0.11;28.85;101933.69;1648306;84;21098;-70
2022/03/11 09:52:16;;;;;;;4.03;1.95;;;;;;;-0.15;29.34;101948.92;1647863;86;21193;-70
2022/03/11 09:54:47;;;;;;;7.95;2.37;;;;;;;-0.04;28.76;101929.46;1647291;84;21133;-68
2022/03/11 09:57:22;;;;;;;8.33;1.90;;;;;;;0.01;29.16;101945.59;1647442;84;21038;-69
2022/03/11 09:59:50;;;;;;;4.17;1.67;;;;;;;0.07;28.95;101944.17;1651358;84;21446;-70
2022/03/11 10:02:17;;;;;;;4.53;1.62;;;;;;;0.16;28.53;101937.97;1648339;84;21050;-69
2022/03/11 10:04:52;;;;;;;3.72;1.65;;;;;;;0.14;28.60;101930.25;1640649;85;21591;-69
2022/03/11 10:07:28;;;;;;;7.75;2.00;;;;;;;0.12;28.64;101929.58;1648888;84;21141;-69
2022/03/11 10:09:56;;;;;;;4.05;1.70;;;;;;;0.15;28.67;101930.58;1649379;84;21238;-70
2022/03/11 10:12:27;;;;;;;8.18;2.08;;;;;;;0.18;28.88;101934.22;1649990;84;21213;-68
2022/03/11 10:15:00;;;;;;;4.45;1.77;;;;;;;0.35;28.19;101934.31;1646586;85;21122;-68
2022/03/11 10:17:30;;;;;;;4.72;1.70;;;;;;;0.49;27.77;101919.76;1650201;84;21114;-68
2022/03/11 10:20:18;;;;;;;7.10;1.90;;;;;;;0.65;27.62;101923.28;1660436;84;28820;-69
2022/03/11 10:22:45;;;;;;;4.12;2.00;;;;;;;0.81;28.13;101917.77;1668201;85;21132;-69
2022/03/11 10:25:25;;;;;;;6.50;2.05;;;;;;;1.00;28.25;101917.50;1667818;86;21213;-67
2022/03/11 10:28:09;;;;;;;3.90;1.98;;;;;;;1.16;28.37;101931.20;1655410;85;21388;-68
2022/03/11 10:30:40;;;;;;;6.28;2.20;;;;;;;1.24;28.35;101924.63;1647904;84;21095;-68
2022/03/11 10:33:11;;;;;;;4.53;1.90;;;;;;;1.28;28.36;101943.05;1648311;84;21098;-68
2022/03/11 10:35:47;;;;;;;3.62;1.65;;;;;;;1.39;27.89;101909.84;1649119;84;21413;-68
2022/03/11 10:38:17;;;;;;;4.25;1.80;;;;;;;1.49;27.22;101912.33;1651214;84;21828;-67
2022/03/11 10:40:53;;;;;;;3.40;1.55;;;;;;;1.37;27.28;101908.36;1646829;86;21682;-68
2022/03/11 10:43:27;;;;;;;6.03;2.20;;;;;;;1.22;27.82;101922.66;1639766;85;21068;-69
2022/03/11 10:46:06;;;;;;;6.00;2.08;;;;;;;1.25;28.39;101932.87;1647495;84;21087;-70
2022/03/11 10:48:46;;;;;;;4.22;1.87;;;;;;;1.40;26.54;101908.03;1648472;84;21004;-68
2022/03/11 10:51:29;;;;;;;4.75;2.05;;;;;;;1.39;26.62;101929.59;1647306;84;21176;-68
2022/03/11 10:53:56;;;;;;;4.95;2.10;;;;;;;1.31;26.60;101919.53;1647063;85;21137;-68
2022/03/11 10:56:36;;;;;;;5.75;2.00;;;;;;;1.19;27.03;101915.59;1649429;84;21145;-67
2022/03/11 10:59:08;;;;;;;5.05;2.00;;;;;;;1.16;26.98;101916.72;1647455;84;21877;-68
2022/03/11 11:01:37;;;;;;;6.97;1.77;;;;;;;1.05;27.30;101927.03;1646784;86;21102;-68
2022/03/11 11:04:09;;;;;;;5.22;2.02;;;;;;;1.07;27.31;101923.77;1647011;84;21136;-69
2022/03/11 11:06:37;;;;;;;4.33;1.95;;;;;;;1.15;27.26;101911.95;1645951;84;29096;-69
2022/03/11 11:09:06;;;;;;;7.75;2.30;;;;;;;1.26;26.94;101929.73;1640954;85;21090;-68
2022/03/11 11:11:34;;;;;;;4.40;1.77;;;;;;;1.31;27.00;101909.82;1647496;84;21160;-69
2022/03/11 11:14:08;;;;;;;4.42;1.90;;;;;;;1.37;27.15;101925.47;1647777;84;21093;-69
2022/03/11 11:16:40;;;;;;;5.20;1.65;;;;;;;1.48;26.61;101921.22;1649056;84;21534;-68
2022/03/11 11:19:14;;;;;;;4.00;1.67;;;;;;;1.49;26.42;101910.19;1643909;85;21055;-68
2022/03/11 11:21:48;;;;;;;4.67;1.98;;;;;;;1.46;26.84;101911.83;1641237;84;21082;-69
2022/03/11 11:24:23;;;;;;;4.95;2.00;;;;;;;1.47;27.02;101911.66;1639554;86;21059;-69
2022/03/11 11:26:53;;;;;;;3.37;1.60;;;;;;;1.57;26.92;101914.13;1645928;84;21078;-68
2022/03/11 11:29:25;;;;;;;4.28;1.70;;;;;;;1.59;26.37;101908.22;1640798;86;21262;-69
2022/03/11 11:31:52;;;;;;;7.35;2.00;;;;;;;1.54;26.22;101905.23;1644931;84;21093;-68
2022/03/11 11:34:34;;;;;;;5.17;1.82;;;;;;;1.56;26.24;101895.38;1648763;84;21078;-68
2022/03/11 11:37:01;;;;;;;2.75;1.52;;;;;;;1.56;25.99;101915.95;1639553;87;22095;-68